sensor_id;sensor_type;location;lat;lon;timestamp;pressure;altitude;pressure_sealevel;temperature;humidity
78892;BME280;68368;51.728;5.248;2024-03-25T00:00:01;100827.40;;;3.62;100.00
78892;BME280;68368;51.728;5.248;2024-03-25T00:02:07;100823.84;;;3.59;100.00
78892;BME280;68368;51.728;5.248;2024-03-25T00:04:10;100821.18;;;3.58;100.00
78892;BME280;68368;51.728;5.248;2024-03-25T00:06:13;100821.31;;;3.56;100.00
78892;BME280;68368;51.728;5.248;2024-03-25T00:08:16;100819.86;;;3.53;100.00
78892;BME280;68368;51.728;5.248;2024-03-25T00:10:19;100818.95;;;3.51;100.00
78892;BME280;68368;51.728;5.248;2024-03-25T00:12:22;100813.82;;;3.49;100.00
78892;BME280;68368;51.728;5.248;2024-03-25T00:14:25;100813.60;;;3.47;100.00
78892;BME280;68368;51.728;5.248;2024-03-25T00:16:27;100813.04;;;3.44;100.00
78892;BME280;68368;51.728;5.248;2024-03-25T00:18:30;100807.89;;;3.41;100.00
78892;BME280;68368;51.728;5.248;2024-03-25T00:20:33;100808.89;;;3.39;100.00
78892;BME280;68368;51.728;5.248;2024-03-25T00:22:36;100808.70;;;3.37;100.00
78892;BME280;68368;51.728;5.248;2024-03-25T00:24:38;100812.17;;;3.36;100.00
78892;BME280;68368;51.728;5.248;2024-03-25T00:26:41;100813.52;;;3.33;100.00
78892;BME280;68368;51.728;5.248;2024-03-25T00:28:45;100810.67;;;3.30;100.00
78892;BME280;68368;51.728;5.248;2024-03-25T00:30:48;100809.73;;;3.27;100.00
78892;BME280;68368;51.728;5.248;2024-03-25T00:32:51;100804.73;;;3.23;100.00
78892;BME280;68368;51.728;5.248;2024-03-25T00:34:54;100798.36;;;3.20;100.00
78892;BME280;68368;51.728;5.248;2024-03-25T00:36:57;100796.89;;;3.16;100.00
78892;BME280;68368;51.728;5.248;2024-03-25T00:39:00;100807.88;;;3.13;100.00
78892;BME280;68368;51.728;5.248;2024-03-25T00:41:03;100809.56;;;3.10;100.00
78892;BME280;68368;51.728;5.248;2024-03-25T00:43:06;100806.19;;;3.08;100.00
78892;BME280;68368;51.728;5.248;2024-03-25T00:45:10;100805.95;;;3.04;100.00
78892;BME280;68368;51.728;5.248;2024-03-25T00:47:12;100808.88;;;3.02;100.00
78892;BME280;68368;51.728;5.248;2024-03-25T00:49:15;100808.11;;;2.98;100.00
78892;BME280;68368;51.728;5.248;2024-03-25T00:51:18;100809.98;;;2.95;100.00
78892;BME280;68368;51.728;5.248;2024-03-25T00:53:21;100809.86;;;2.89;100.00
78892;BME280;68368;51.728;5.248;2024-03-25T00:55:24;100809.23;;;2.84;100.00
78892;BME280;68368;51.728;5.248;2024-03-25T00:57:27;100810.89;;;2.80;100.00
78892;BME280;68368;51.728;5.248;2024-03-25T00:59:30;100811.86;;;2.76;100.00
78892;BME280;68368;51.728;5.248;2024-03-25T01:01:33;100814.74;;;2.71;100.00
78892;BME280;68368;51.728;5.248;2024-03-25T01:03:36;100813.25;;;2.67;100.00
78892;BME280;68368;51.728;5.248;2024-03-25T01:05:38;100818.07;;;2.63;100.00
78892;BME280;68368;51.728;5.248;2024-03-25T01:07:41;100819.20;;;2.59;100.00
78892;BME280;68368;51.728;5.248;2024-03-25T01:09:44;100820.15;;;2.54;100.00
78892;BME280;68368;51.728;5.248;2024-03-25T01:11:46;100817.90;;;2.47;100.00
78892;BME280;68368;51.728;5.248;2024-03-25T01:13:50;100822.67;;;2.42;100.00
78892;BME280;68368;51.728;5.248;2024-03-25T01:15:53;100824.29;;;2.36;100.00
78892;BME280;68368;51.728;5.248;2024-03-25T01:17:56;100822.08;;;2.31;100.00
78892;BME280;68368;51.728;5.248;2024-03-25T01:19:59;100817.61;;;2.28;100.00
78892;BME280;68368;51.728;5.248;2024-03-25T01:22:02;100819.84;;;2.25;100.00
78892;BME280;68368;51.728;5.248;2024-03-25T01:24:05;100816.29;;;2.23;100.00
78892;BME280;68368;51.728;5.248;2024-03-25T01:26:11;100811.19;;;2.22;100.00
78892;BME280;68368;51.728;5.248;2024-03-25T01:28:14;100814.52;;;2.22;100.00
78892;BME280;68368;51.728;5.248;2024-03-25T01:30:17;100816.57;;;2.21;100.00
78892;BME280;68368;51.728;5.248;2024-03-25T01:32:20;100822.23;;;2.22;100.00
78892;BME280;68368;51.728;5.248;2024-03-25T01:34:24;100828.35;;;2.22;100.00
78892;BME280;68368;51.728;5.248;2024-03-25T01:36:26;100825.70;;;2.21;100.00
78892;BME280;68368;51.728;5.248;2024-03-25T01:38:31;100827.42;;;2.20;100.00
78892;BME280;68368;51.728;5.248;2024-03-25T01:40:34;100826.90;;;2.20;100.00
78892;BME280;68368;51.728;5.248;2024-03-25T01:42:39;100826.54;;;2.20;100.00
78892;BME280;68368;51.728;5.248;2024-03-25T01:44:42;100820.40;;;2.19;100.00
78892;BME280;68368;51.728;5.248;2024-03-25T01:46:47;100821.81;;;2.19;100.00
78892;BME280;68368;51.728;5.248;2024-03-25T01:48:51;100822.05;;;2.21;100.00
78892;BME280;68368;51.728;5.248;2024-03-25T01:50:54;100817.89;;;2.24;100.00
78892;BME280;68368;51.728;5.248;2024-03-25T01:52:58;100813.08;;;2.28;100.00
78892;BME280;68368;51.728;5.248;2024-03-25T01:55:01;100812.65;;;2.32;100.00
78892;BME280;68368;51.728;5.248;2024-03-25T01:57:05;100817.48;;;2.37;100.00
78892;BME280;68368;51.728;5.248;2024-03-25T01:59:08;100816.39;;;2.42;100.00
78892;BME280;68368;51.728;5.248;2024-03-25T02:01:12;100814.92;;;2.47;100.00
78892;BME280;68368;51.728;5.248;2024-03-25T02:03:16;100815.70;;;2.52;100.00
78892;BME280;68368;51.728;5.248;2024-03-25T02:05:21;100813.34;;;2.55;100.00
78892;BME280;68368;51.728;5.248;2024-03-25T02:07:25;100810.08;;;2.59;100.00
78892;BME280;68368;51.728;5.248;2024-03-25T02:09:29;100804.77;;;2.63;100.00
78892;BME280;68368;51.728;5.248;2024-03-25T02:11:32;100806.94;;;2.67;100.00
78892;BME280;68368;51.728;5.248;2024-03-25T02:13:36;100809.84;;;2.72;100.00
78892;BME280;68368;51.728;5.248;2024-03-25T02:15:41;100802.36;;;2.74;100.00
78892;BME280;68368;51.728;5.248;2024-03-25T02:17:44;100806.27;;;2.77;100.00
78892;BME280;68368;51.728;5.248;2024-03-25T02:19:47;100809.67;;;2.80;100.00
78892;BME280;68368;51.728;5.248;2024-03-25T02:21:50;100813.41;;;2.83;100.00
78892;BME280;68368;51.728;5.248;2024-03-25T02:23:53;100812.02;;;2.84;100.00
78892;BME280;68368;51.728;5.248;2024-03-25T02:25:59;100814.34;;;2.86;100.00
78892;BME280;68368;51.728;5.248;2024-03-25T02:28:02;100816.98;;;2.87;100.00
78892;BME280;68368;51.728;5.248;2024-03-25T02:30:08;100814.89;;;2.87;100.00
78892;BME280;68368;51.728;5.248;2024-03-25T02:32:12;100810.17;;;2.88;100.00
78892;BME280;68368;51.728;5.248;2024-03-25T02:34:16;100811.21;;;2.87;100.00
78892;BME280;68368;51.728;5.248;2024-03-25T02:36:20;100807.69;;;2.86;100.00
78892;BME280;68368;51.728;5.248;2024-03-25T02:38:23;100804.84;;;2.84;100.00
78892;BME280;68368;51.728;5.248;2024-03-25T02:40:26;100803.04;;;2.82;100.00
78892;BME280;68368;51.728;5.248;2024-03-25T02:42:29;100798.29;;;2.81;100.00
78892;BME280;68368;51.728;5.248;2024-03-25T02:44:32;100797.54;;;2.79;100.00
78892;BME280;68368;51.728;5.248;2024-03-25T02:46:35;100795.94;;;2.77;100.00
78892;BME280;68368;51.728;5.248;2024-03-25T02:48:38;100791.33;;;2.75;100.00
78892;BME280;68368;51.728;5.248;2024-03-25T02:50:41;100785.12;;;2.72;100.00
78892;BME280;68368;51.728;5.248;2024-03-25T02:52:44;100784.54;;;2.69;100.00
78892;BME280;68368;51.728;5.248;2024-03-25T02:54:49;100784.62;;;2.64;100.00
78892;BME280;68368;51.728;5.248;2024-03-25T02:56:51;100783.83;;;2.60;100.00
78892;BME280;68368;51.728;5.248;2024-03-25T02:58:54;100786.70;;;2.55;100.00
78892;BME280;68368;51.728;5.248;2024-03-25T03:00:57;100784.31;;;2.50;100.00
78892;BME280;68368;51.728;5.248;2024-03-25T03:03:00;100785.98;;;2.46;100.00
78892;BME280;68368;51.728;5.248;2024-03-25T03:05:04;100786.80;;;2.43;100.00
78892;BME280;68368;51.728;5.248;2024-03-25T03:07:07;100784.25;;;2.39;100.00
78892;BME280;68368;51.728;5.248;2024-03-25T03:09:10;100781.39;;;2.36;100.00
78892;BME280;68368;51.728;5.248;2024-03-25T03:11:15;100787.80;;;2.33;100.00
78892;BME280;68368;51.728;5.248;2024-03-25T03:13:19;100786.00;;;2.31;100.00
78892;BME280;68368;51.728;5.248;2024-03-25T03:15:22;100784.88;;;2.28;100.00
78892;BME280;68368;51.728;5.248;2024-03-25T03:17:25;100783.60;;;2.25;100.00
78892;BME280;68368;51.728;5.248;2024-03-25T03:19:28;100783.05;;;2.25;100.00
78892;BME280;68368;51.728;5.248;2024-03-25T03:21:31;100782.32;;;2.23;100.00
78892;BME280;68368;51.728;5.248;2024-03-25T03:23:34;100780.90;;;2.23;100.00
78892;BME280;68368;51.728;5.248;2024-03-25T03:25:37;100781.77;;;2.22;100.00
78892;BME280;68368;51.728;5.248;2024-03-25T03:27:40;100782.45;;;2.21;100.00
78892;BME280;68368;51.728;5.248;2024-03-25T03:29:43;100783.83;;;2.21;100.00
78892;BME280;68368;51.728;5.248;2024-03-25T03:31:46;100779.42;;;2.19;100.00
78892;BME280;68368;51.728;5.248;2024-03-25T03:33:49;100778.14;;;2.17;100.00
78892;BME280;68368;51.728;5.248;2024-03-25T03:35:53;100776.69;;;2.15;100.00
78892;BME280;68368;51.728;5.248;2024-03-25T03:37:56;100771.92;;;2.13;100.00
78892;BME280;68368;51.728;5.248;2024-03-25T03:40:00;100768.38;;;2.11;100.00
78892;BME280;68368;51.728;5.248;2024-03-25T03:42:03;100767.45;;;2.08;100.00
78892;BME280;68368;51.728;5.248;2024-03-25T03:44:06;100768.60;;;2.06;100.00
78892;BME280;68368;51.728;5.248;2024-03-25T03:46:08;100772.92;;;2.03;100.00
78892;BME280;68368;51.728;5.248;2024-03-25T03:48:11;100776.21;;;2.01;100.00
78892;BME280;68368;51.728;5.248;2024-03-25T03:50:14;100771.45;;;2.00;100.00
78892;BME280;68368;51.728;5.248;2024-03-25T03:52:17;100771.76;;;1.98;100.00
78892;BME280;68368;51.728;5.248;2024-03-25T03:54:19;100773.45;;;1.96;100.00
78892;BME280;68368;51.728;5.248;2024-03-25T03:56:22;100774.27;;;1.93;100.00
78892;BME280;68368;51.728;5.248;2024-03-25T03:58:25;100774.42;;;1.92;100.00
78892;BME280;68368;51.728;5.248;2024-03-25T04:00:28;100774.75;;;1.92;100.00
78892;BME280;68368;51.728;5.248;2024-03-25T04:02:31;100776.48;;;1.90;100.00
78892;BME280;68368;51.728;5.248;2024-03-25T04:04:33;100776.24;;;1.88;100.00
78892;BME280;68368;51.728;5.248;2024-03-25T04:06:36;100779.02;;;1.87;100.00
78892;BME280;68368;51.728;5.248;2024-03-25T04:08:40;100780.91;;;1.86;100.00
78892;BME280;68368;51.728;5.248;2024-03-25T04:10:46;100777.92;;;1.85;100.00
78892;BME280;68368;51.728;5.248;2024-03-25T04:12:49;100776.65;;;1.84;100.00
78892;BME280;68368;51.728;5.248;2024-03-25T04:14:51;100782.39;;;1.81;100.00
78892;BME280;68368;51.728;5.248;2024-03-25T04:16:54;100781.46;;;1.79;100.00
78892;BME280;68368;51.728;5.248;2024-03-25T04:18:57;100781.41;;;1.77;100.00
78892;BME280;68368;51.728;5.248;2024-03-25T04:21:01;100778.56;;;1.76;100.00
78892;BME280;68368;51.728;5.248;2024-03-25T04:23:04;100776.98;;;1.75;100.00
78892;BME280;68368;51.728;5.248;2024-03-25T04:25:08;100775.60;;;1.76;100.00
78892;BME280;68368;51.728;5.248;2024-03-25T04:27:11;100775.60;;;1.76;100.00
78892;BME280;68368;51.728;5.248;2024-03-25T04:29:16;100774.05;;;1.77;100.00
78892;BME280;68368;51.728;5.248;2024-03-25T04:31:19;100770.89;;;1.77;100.00
78892;BME280;68368;51.728;5.248;2024-03-25T04:33:21;100779.86;;;1.78;100.00
78892;BME280;68368;51.728;5.248;2024-03-25T04:35:24;100771.65;;;1.79;100.00
78892;BME280;68368;51.728;5.248;2024-03-25T04:37:29;100769.02;;;1.78;100.00
78892;BME280;68368;51.728;5.248;2024-03-25T04:39:32;100772.16;;;1.78;100.00
78892;BME280;68368;51.728;5.248;2024-03-25T04:41:35;100769.90;;;1.78;100.00
78892;BME280;68368;51.728;5.248;2024-03-25T04:43:38;100768.15;;;1.79;100.00
78892;BME280;68368;51.728;5.248;2024-03-25T04:45:41;100765.52;;;1.79;100.00
78892;BME280;68368;51.728;5.248;2024-03-25T04:47:44;100757.98;;;1.78;100.00
78892;BME280;68368;51.728;5.248;2024-03-25T04:49:47;100764.44;;;1.77;100.00
78892;BME280;68368;51.728;5.248;2024-03-25T04:51:50;100766.71;;;1.78;100.00
78892;BME280;68368;51.728;5.248;2024-03-25T04:53:53;100769.14;;;1.77;100.00
78892;BME280;68368;51.728;5.248;2024-03-25T04:55:56;100769.48;;;1.76;100.00
78892;BME280;68368;51.728;5.248;2024-03-25T04:58:00;100768.58;;;1.75;100.00
78892;BME280;68368;51.728;5.248;2024-03-25T05:00:03;100769.93;;;1.74;100.00
78892;BME280;68368;51.728;5.248;2024-03-25T05:02:06;100773.96;;;1.74;100.00
78892;BME280;68368;51.728;5.248;2024-03-25T05:04:10;100779.20;;;1.73;100.00
78892;BME280;68368;51.728;5.248;2024-03-25T05:06:15;100780.60;;;1.72;100.00
78892;BME280;68368;51.728;5.248;2024-03-25T05:08:20;100783.88;;;1.71;100.00
78892;BME280;68368;51.728;5.248;2024-03-25T05:10:23;100786.66;;;1.71;100.00
78892;BME280;68368;51.728;5.248;2024-03-25T05:12:26;100787.88;;;1.70;100.00
78892;BME280;68368;51.728;5.248;2024-03-25T05:14:29;100790.13;;;1.69;100.00
78892;BME280;68368;51.728;5.248;2024-03-25T05:16:31;100790.98;;;1.68;100.00
78892;BME280;68368;51.728;5.248;2024-03-25T05:18:34;100794.80;;;1.67;100.00
78892;BME280;68368;51.728;5.248;2024-03-25T05:20:38;100794.60;;;1.66;100.00
78892;BME280;68368;51.728;5.248;2024-03-25T05:22:43;100797.04;;;1.66;100.00
78892;BME280;68368;51.728;5.248;2024-03-25T05:24:47;100801.04;;;1.65;100.00
78892;BME280;68368;51.728;5.248;2024-03-25T05:26:49;100801.02;;;1.64;100.00
78892;BME280;68368;51.728;5.248;2024-03-25T05:28:54;100804.00;;;1.64;100.00
78892;BME280;68368;51.728;5.248;2024-03-25T05:31:05;100801.54;;;1.64;100.00
78892;BME280;68368;51.728;5.248;2024-03-25T05:33:09;100802.06;;;1.64;100.00
78892;BME280;68368;51.728;5.248;2024-03-25T05:35:13;100799.98;;;1.64;100.00
78892;BME280;68368;51.728;5.248;2024-03-25T05:37:16;100797.73;;;1.65;100.00
78892;BME280;68368;51.728;5.248;2024-03-25T05:39:19;100797.61;;;1.68;100.00
78892;BME280;68368;51.728;5.248;2024-03-25T05:41:22;100793.30;;;1.70;100.00
78892;BME280;68368;51.728;5.248;2024-03-25T05:43:24;100792.55;;;1.74;100.00
78892;BME280;68368;51.728;5.248;2024-03-25T05:45:27;100790.23;;;1.80;100.00
78892;BME280;68368;51.728;5.248;2024-03-25T05:47:30;100779.70;;;1.86;100.00
78892;BME280;68368;51.728;5.248;2024-03-25T05:49:33;100777.61;;;1.94;100.00
78892;BME280;68368;51.728;5.248;2024-03-25T05:51:36;100781.46;;;2.01;100.00
78892;BME280;68368;51.728;5.248;2024-03-25T05:53:39;100780.61;;;2.10;100.00
78892;BME280;68368;51.728;5.248;2024-03-25T05:55:41;100779.27;;;2.20;100.00
78892;BME280;68368;51.728;5.248;2024-03-25T05:57:44;100783.17;;;2.30;100.00
78892;BME280;68368;51.728;5.248;2024-03-25T05:59:47;100781.48;;;2.48;100.00
78892;BME280;68368;51.728;5.248;2024-03-25T06:01:50;100783.10;;;3.02;100.00
78892;BME280;68368;51.728;5.248;2024-03-25T06:03:53;100775.55;;;3.59;100.00
78892;BME280;68368;51.728;5.248;2024-03-25T06:05:56;100772.60;;;4.04;100.00
78892;BME280;68368;51.728;5.248;2024-03-25T06:07:58;100763.92;;;4.62;100.00
78892;BME280;68368;51.728;5.248;2024-03-25T06:10:01;100758.23;;;5.17;100.00
78892;BME280;68368;51.728;5.248;2024-03-25T06:12:06;100755.74;;;5.69;100.00
78892;BME280;68368;51.728;5.248;2024-03-25T06:14:09;100751.21;;;6.18;100.00
78892;BME280;68368;51.728;5.248;2024-03-25T06:16:12;100749.17;;;6.65;100.00
78892;BME280;68368;51.728;5.248;2024-03-25T06:18:15;100745.63;;;7.13;99.34
78892;BME280;68368;51.728;5.248;2024-03-25T06:20:18;100742.87;;;7.64;96.74
78892;BME280;68368;51.728;5.248;2024-03-25T06:22:21;100745.33;;;8.14;93.83
78892;BME280;68368;51.728;5.248;2024-03-25T06:24:24;100745.58;;;8.60;90.90
78892;BME280;68368;51.728;5.248;2024-03-25T06:26:27;100746.82;;;9.00;88.40
78892;BME280;68368;51.728;5.248;2024-03-25T06:28:29;100743.65;;;9.31;85.27
78892;BME280;68368;51.728;5.248;2024-03-25T06:30:32;100746.64;;;9.57;83.47
78892;BME280;68368;51.728;5.248;2024-03-25T06:32:35;100744.64;;;9.86;82.06
78892;BME280;68368;51.728;5.248;2024-03-25T06:34:40;100741.02;;;10.14;80.41
78892;BME280;68368;51.728;5.248;2024-03-25T06:36:42;100740.45;;;10.38;79.12
78892;BME280;68368;51.728;5.248;2024-03-25T06:38:46;100743.84;;;10.67;77.52
78892;BME280;68368;51.728;5.248;2024-03-25T06:40:49;100738.86;;;10.95;76.19
78892;BME280;68368;51.728;5.248;2024-03-25T06:42:52;100735.61;;;11.25;75.18
78892;BME280;68368;51.728;5.248;2024-03-25T06:44:54;100733.52;;;11.57;73.79
78892;BME280;68368;51.728;5.248;2024-03-25T06:46:57;100731.79;;;11.88;72.21
78892;BME280;68368;51.728;5.248;2024-03-25T06:49:01;100730.58;;;12.17;70.72
78892;BME280;68368;51.728;5.248;2024-03-25T06:51:05;100733.61;;;12.44;69.90
78892;BME280;68368;51.728;5.248;2024-03-25T06:53:07;100731.77;;;12.64;68.61
78892;BME280;68368;51.728;5.248;2024-03-25T06:55:10;100739.60;;;12.83;68.02
78892;BME280;68368;51.728;5.248;2024-03-25T06:57:14;100738.63;;;13.04;66.74
78892;BME280;68368;51.728;5.248;2024-03-25T06:59:17;100739.14;;;13.21;66.02
78892;BME280;68368;51.728;5.248;2024-03-25T07:01:26;100739.59;;;13.41;65.05
78892;BME280;68368;51.728;5.248;2024-03-25T07:03:29;100737.59;;;13.59;63.90
78892;BME280;68368;51.728;5.248;2024-03-25T07:05:31;100737.77;;;13.66;62.57
78892;BME280;68368;51.728;5.248;2024-03-25T07:07:34;100739.97;;;13.71;61.68
78892;BME280;68368;51.728;5.248;2024-03-25T07:09:38;100741.82;;;13.75;61.05
78892;BME280;68368;51.728;5.248;2024-03-25T07:11:40;100737.81;;;13.78;60.27
78892;BME280;68368;51.728;5.248;2024-03-25T07:13:43;100734.95;;;13.86;60.51
78892;BME280;68368;51.728;5.248;2024-03-25T07:15:48;100730.15;;;13.98;60.16
78892;BME280;68368;51.728;5.248;2024-03-25T07:17:50;100733.73;;;14.06;59.78
78892;BME280;68368;51.728;5.248;2024-03-25T07:19:53;100732.27;;;14.13;59.47
78892;BME280;68368;51.728;5.248;2024-03-25T07:21:56;100731.02;;;14.20;59.20
78892;BME280;68368;51.728;5.248;2024-03-25T07:23:58;100734.61;;;14.39;60.31
78892;BME280;68368;51.728;5.248;2024-03-25T07:26:01;100731.53;;;14.61;60.34
78892;BME280;68368;51.728;5.248;2024-03-25T07:28:05;100734.42;;;14.84;60.90
78892;BME280;68368;51.728;5.248;2024-03-25T07:30:11;100735.66;;;15.09;60.55
78892;BME280;68368;51.728;5.248;2024-03-25T07:32:14;100731.96;;;15.30;60.18
78892;BME280;68368;51.728;5.248;2024-03-25T07:34:17;100731.02;;;15.44;58.38
78892;BME280;68368;51.728;5.248;2024-03-25T07:36:20;100733.65;;;15.56;58.81
78892;BME280;68368;51.728;5.248;2024-03-25T07:38:23;100734.00;;;15.73;59.15
78892;BME280;68368;51.728;5.248;2024-03-25T07:40:26;100730.64;;;15.99;59.53
78892;BME280;68368;51.728;5.248;2024-03-25T07:42:31;100736.14;;;16.21;58.63
78892;BME280;68368;51.728;5.248;2024-03-25T07:44:34;100729.08;;;16.34;58.25
78892;BME280;68368;51.728;5.248;2024-03-25T07:46:37;100732.02;;;16.41;57.93
78892;BME280;68368;51.728;5.248;2024-03-25T07:48:41;100734.39;;;16.45;57.76
78892;BME280;68368;51.728;5.248;2024-03-25T07:50:43;100738.73;;;16.49;56.87
78892;BME280;68368;51.728;5.248;2024-03-25T07:52:46;100739.14;;;16.48;56.80
78892;BME280;68368;51.728;5.248;2024-03-25T07:54:50;100740.30;;;16.45;56.52
78892;BME280;68368;51.728;5.248;2024-03-25T07:56:53;100737.74;;;16.37;55.18
78892;BME280;68368;51.728;5.248;2024-03-25T07:58:57;100739.39;;;16.31;55.91
78892;BME280;68368;51.728;5.248;2024-03-25T08:00:59;100737.20;;;16.27;56.46
78892;BME280;68368;51.728;5.248;2024-03-25T08:03:03;100737.43;;;16.21;56.88
78892;BME280;68368;51.728;5.248;2024-03-25T08:05:07;100737.98;;;16.14;57.29
78892;BME280;68368;51.728;5.248;2024-03-25T08:07:11;100740.52;;;16.14;56.76
78892;BME280;68368;51.728;5.248;2024-03-25T08:09:14;100737.17;;;16.12;57.53
78892;BME280;68368;51.728;5.248;2024-03-25T08:11:17;100735.98;;;16.11;58.04
78892;BME280;68368;51.728;5.248;2024-03-25T08:13:19;100734.26;;;16.09;58.77
78892;BME280;68368;51.728;5.248;2024-03-25T08:15:22;100732.58;;;16.16;57.82
78892;BME280;68368;51.728;5.248;2024-03-25T08:17:25;100737.42;;;16.21;57.90
78892;BME280;68368;51.728;5.248;2024-03-25T08:19:28;100739.77;;;16.20;58.32
78892;BME280;68368;51.728;5.248;2024-03-25T08:21:31;100746.48;;;16.18;58.29
78892;BME280;68368;51.728;5.248;2024-03-25T08:23:34;100745.88;;;16.20;58.31
78892;BME280;68368;51.728;5.248;2024-03-25T08:25:37;100747.63;;;16.21;58.50
78892;BME280;68368;51.728;5.248;2024-03-25T08:27:40;100753.52;;;16.21;58.84
78892;BME280;68368;51.728;5.248;2024-03-25T08:29:42;100748.52;;;16.15;58.85
78892;BME280;68368;51.728;5.248;2024-03-25T08:31:46;100754.85;;;16.08;58.87
78892;BME280;68368;51.728;5.248;2024-03-25T08:33:49;100757.92;;;15.97;58.15
78892;BME280;68368;51.728;5.248;2024-03-25T08:35:52;100757.08;;;15.85;57.34
78892;BME280;68368;51.728;5.248;2024-03-25T08:37:54;100752.12;;;15.73;57.42
78892;BME280;68368;51.728;5.248;2024-03-25T08:39:57;100754.40;;;15.56;57.73
78892;BME280;68368;51.728;5.248;2024-03-25T08:42:00;100761.26;;;15.31;57.05
78892;BME280;68368;51.728;5.248;2024-03-25T08:44:03;100765.90;;;14.84;57.03
78892;BME280;68368;51.728;5.248;2024-03-25T08:46:05;100760.86;;;14.40;59.16
78892;BME280;68368;51.728;5.248;2024-03-25T08:48:08;100755.87;;;14.05;60.81
78892;BME280;68368;51.728;5.248;2024-03-25T08:50:11;100756.94;;;13.77;60.98
78892;BME280;68368;51.728;5.248;2024-03-25T08:52:15;100752.31;;;13.47;60.93
78892;BME280;68368;51.728;5.248;2024-03-25T08:54:18;100751.58;;;13.24;61.66
78892;BME280;68368;51.728;5.248;2024-03-25T08:56:23;100748.39;;;13.05;62.54
78892;BME280;68368;51.728;5.248;2024-03-25T08:58:26;100745.31;;;12.91;63.66
78892;BME280;68368;51.728;5.248;2024-03-25T09:00:29;100745.30;;;12.82;64.28
78892;BME280;68368;51.728;5.248;2024-03-25T09:02:32;100743.88;;;12.91;64.81
78892;BME280;68368;51.728;5.248;2024-03-25T09:04:35;100747.77;;;12.93;65.15
78892;BME280;68368;51.728;5.248;2024-03-25T09:06:42;100746.29;;;12.87;65.76
78892;BME280;68368;51.728;5.248;2024-03-25T09:08:45;100746.45;;;12.80;66.23
78892;BME280;68368;51.728;5.248;2024-03-25T09:10:48;100748.86;;;12.75;66.87
78892;BME280;68368;51.728;5.248;2024-03-25T09:12:51;100746.33;;;12.85;66.95
78892;BME280;68368;51.728;5.248;2024-03-25T09:14:54;100746.11;;;12.96;66.85
78892;BME280;68368;51.728;5.248;2024-03-25T09:16:57;100742.57;;;13.20;66.97
78892;BME280;68368;51.728;5.248;2024-03-25T09:19:00;100733.95;;;13.47;67.00
78892;BME280;68368;51.728;5.248;2024-03-25T09:21:04;100731.86;;;13.73;65.76
78892;BME280;68368;51.728;5.248;2024-03-25T09:23:07;100726.42;;;13.98;66.35
78892;BME280;68368;51.728;5.248;2024-03-25T09:25:10;100726.38;;;14.14;66.62
78892;BME280;68368;51.728;5.248;2024-03-25T09:27:13;100725.04;;;14.30;64.73
78892;BME280;68368;51.728;5.248;2024-03-25T09:29:17;100722.00;;;14.43;66.04
78892;BME280;68368;51.728;5.248;2024-03-25T09:31:21;100721.45;;;14.58;64.73
78892;BME280;68368;51.728;5.248;2024-03-25T09:33:23;100715.61;;;14.74;64.58
78892;BME280;68368;51.728;5.248;2024-03-25T09:35:26;100709.70;;;14.86;64.89
78892;BME280;68368;51.728;5.248;2024-03-25T09:37:29;100707.34;;;15.00;63.37
78892;BME280;68368;51.728;5.248;2024-03-25T09:39:33;100703.67;;;15.20;63.17
78892;BME280;68368;51.728;5.248;2024-03-25T09:41:36;100701.80;;;15.34;61.81
78892;BME280;68368;51.728;5.248;2024-03-25T09:43:44;100697.91;;;15.44;61.71
78892;BME280;68368;51.728;5.248;2024-03-25T09:45:48;100696.06;;;15.56;61.85
78892;BME280;68368;51.728;5.248;2024-03-25T09:47:54;100688.23;;;15.67;61.50
78892;BME280;68368;51.728;5.248;2024-03-25T09:49:58;100682.99;;;15.69;60.51
78892;BME280;68368;51.728;5.248;2024-03-25T09:52:01;100678.61;;;15.65;58.79
78892;BME280;68368;51.728;5.248;2024-03-25T09:54:04;100679.12;;;15.72;60.42
78892;BME280;68368;51.728;5.248;2024-03-25T09:56:08;100680.27;;;15.86;60.24
78892;BME280;68368;51.728;5.248;2024-03-25T09:58:12;100675.33;;;16.04;61.54
78892;BME280;68368;51.728;5.248;2024-03-25T10:00:16;100672.85;;;16.23;61.12
78892;BME280;68368;51.728;5.248;2024-03-25T10:02:19;100672.29;;;16.44;61.40
78892;BME280;68368;51.728;5.248;2024-03-25T10:04:22;100667.17;;;16.60;58.57
78892;BME280;68368;51.728;5.248;2024-03-25T10:06:25;100666.54;;;16.72;57.31
78892;BME280;68368;51.728;5.248;2024-03-25T10:08:27;100657.96;;;16.86;56.99
78892;BME280;68368;51.728;5.248;2024-03-25T10:10:33;100659.19;;;16.96;55.99
78892;BME280;68368;51.728;5.248;2024-03-25T10:12:37;100653.52;;;17.08;56.19
78892;BME280;68368;51.728;5.248;2024-03-25T10:14:42;100650.23;;;17.09;54.69
78892;BME280;68368;51.728;5.248;2024-03-25T10:16:44;100648.46;;;17.05;55.03
78892;BME280;68368;51.728;5.248;2024-03-25T10:18:48;100647.79;;;17.08;55.06
78892;BME280;68368;51.728;5.248;2024-03-25T10:20:50;100640.64;;;17.16;54.00
78892;BME280;68368;51.728;5.248;2024-03-25T10:22:53;100639.96;;;17.11;51.86
78892;BME280;68368;51.728;5.248;2024-03-25T10:24:56;100641.73;;;17.12;52.88
78892;BME280;68368;51.728;5.248;2024-03-25T10:26:59;100641.44;;;17.18;54.68
78892;BME280;68368;51.728;5.248;2024-03-25T10:29:04;100639.83;;;17.28;53.89
78892;BME280;68368;51.728;5.248;2024-03-25T10:31:07;100635.29;;;17.37;54.47
78892;BME280;68368;51.728;5.248;2024-03-25T10:33:10;100638.52;;;17.54;53.97
78892;BME280;68368;51.728;5.248;2024-03-25T10:35:13;100641.01;;;17.64;51.46
78892;BME280;68368;51.728;5.248;2024-03-25T10:37:17;100639.81;;;17.71;51.97
78892;BME280;68368;51.728;5.248;2024-03-25T10:39:21;100636.42;;;17.79;51.68
78892;BME280;68368;51.728;5.248;2024-03-25T10:41:28;100626.53;;;17.84;51.67
78892;BME280;68368;51.728;5.248;2024-03-25T10:43:35;100630.63;;;17.80;51.70